Time;durP1;ratioP1;P1;durP2;ratioP2;P2;SDS_P1;SDS_P2;PMS_P1;PMS_P2;Temp;Humidity;BMP_temperature;BMP_pressure;BME280_temperature;BME280_humidity;BME280_pressure;Samples;Min_cycle;Max_cycle;Signal;HPM_P1;HPM_P2
2022/11/25 08:03:53;;;;;;;16.88;2.25;;;7.10;99.90;;;;;;5049204;28;20392;-58
2022/11/25 08:06:22;;;;;;;22.15;3.15;;;7.30;99.90;;;;;;5047465;28;20022;-58
2022/11/25 08:08:48;;;;;;;14.63;2.58;;;7.30;99.90;;;;;;5047117;28;20025;-58
2022/11/25 08:11:17;;;;;;;19.40;2.47;;;7.30;99.90;;;;;;5047314;28;20029;-58
2022/11/25 08:13:43;;;;;;;11.13;2.93;;;7.40;99.90;;;;;;5047363;28;20048;-60
2022/11/25 08:16:11;;;;;;;24.40;3.00;;;7.40;99.90;;;;;;5047444;28;20104;-58
2022/11/25 08:18:37;;;;;;;17.40;2.58;;;7.50;99.90;;;;;;5047225;28;20472;-59
2022/11/25 08:21:05;;;;;;;18.80;2.38;;;7.70;99.90;;;;;;5047319;28;20025;-59
2022/11/25 08:23:32;;;;;;;20.20;2.65;;;7.90;99.90;;;;;;5046111;28;20484;-59
2022/11/25 08:26:12;;;;;;;13.75;2.03;;;8.20;99.90;;;;;;5047204;28;20021;-59
2022/11/25 08:28:42;;;;;;;14.63;2.55;;;9.30;99.90;;;;;;5047460;28;20427;-60
2022/11/25 08:31:21;;;;;;;19.38;2.58;;;10.90;99.90;;;;;;5047558;28;20471;-59
2022/11/25 08:33:47;;;;;;;8.23;2.00;;;12.40;99.90;;;;;;5047483;28;20022;-56
2022/11/25 08:36:14;;;;;;;12.40;2.08;;;13.70;99.90;;;;;;5047506;28;20097;-57
2022/11/25 08:38:41;;;;;;;9.30;2.03;;;14.60;99.90;;;;;;5047242;28;20178;-57
2022/11/25 08:41:12;;;;;;;8.85;1.67;;;15.70;99.90;;;;;;5047260;28;20025;-59
2022/11/25 08:43:38;;;;;;;8.10;2.00;;;16.70;99.90;;;;;;5047121;28;20064;-57
2022/11/25 08:46:08;;;;;;;11.40;1.90;;;17.50;99.90;;;;;;5046937;28;20032;-59
2022/11/25 08:48:34;;;;;;;7.97;1.60;;;18.00;99.90;;;;;;5046934;28;20026;-59
2022/11/25 08:51:00;;;;;;;7.10;1.65;;;18.80;99.90;;;;;;5047050;28;20036;-59
2022/11/25 08:53:25;;;;;;;7.55;1.95;;;18.60;98.40;;;;;;5047036;28;20046;-59
2022/11/25 08:55:51;;;;;;;8.88;2.17;;;17.30;96.20;;;;;;5047020;28;20029;-60
2022/11/25 08:58:16;;;;;;;11.63;2.10;;;16.00;97.50;;;;;;5046578;28;20106;-60
2022/11/25 09:00:44;;;;;;;15.20;2.60;;;14.70;99.50;;;;;;5046948;28;20034;-58
2022/11/25 09:03:10;;;;;;;13.57;2.50;;;13.80;99.90;;;;;;5046485;28;20549;-59
2022/11/25 09:05:39;;;;;;;13.55;2.50;;;12.90;99.90;;;;;;5045515;28;20029;-58
2022/11/25 09:08:06;;;;;;;14.32;3.35;;;12.20;99.90;;;;;;5045685;28;20021;-59
2022/11/25 09:10:33;;;;;;;13.30;2.45;;;11.60;99.90;;;;;;5045600;28;20041;-58
2022/11/25 09:12:59;;;;;;;10.32;2.75;;;11.20;99.90;;;;;;5045115;28;20036;-59
2022/11/25 09:15:25;;;;;;;12.10;2.83;;;10.90;99.90;;;;;;5033370;28;20018;-58
2022/11/25 09:18:05;;;;;;;13.65;2.50;;;10.80;99.90;;;;;;5033686;28;20030;-58
2022/11/25 09:20:32;;;;;;;14.68;2.45;;;10.70;99.90;;;;;;5033684;28;20300;-60
2022/11/25 09:22:59;;;;;;;11.52;2.60;;;10.60;99.90;;;;;;5032609;28;20028;-58
2022/11/25 09:25:25;;;;;;;12.57;3.20;;;10.60;99.90;;;;;;5033214;28;20071;-59
2022/11/25 09:27:50;;;;;;;13.50;2.75;;;10.50;99.90;;;;;;5028226;28;20037;-59
2022/11/25 09:30:16;;;;;;;11.15;2.08;;;10.50;99.90;;;;;;5033204;28;20380;-59
2022/11/25 09:32:42;;;;;;;13.07;2.90;;;10.50;99.90;;;;;;5032961;28;20061;-60
2022/11/25 09:35:08;;;;;;;18.83;3.00;;;10.50;99.90;;;;;;5029119;28;20040;-58
2022/11/25 09:37:34;;;;;;;11.90;2.03;;;10.60;99.90;;;;;;5029227;28;20423;-59
2022/11/25 09:39:59;;;;;;;19.90;3.20;;;10.80;99.90;;;;;;5031320;28;20469;-58
2022/11/25 09:48:36;;;;;;;10.50;2.33;;;15.30;99.90;;;;;;5032348;28;20028;-58
2022/11/25 09:51:17;;;;;;;10.60;2.05;;;17.10;99.20;;;;;;5032182;28;20404;-58
2022/11/25 09:53:49;;;;;;;8.18;1.70;;;18.40;97.00;;;;;;5032242;28;20045;-58
2022/11/25 09:56:39;;;;;;;13.18;1.90;;;18.80;95.30;;;;;;5032323;28;20488;-57
2022/11/25 09:59:18;;;;;;;6.07;1.63;;;19.00;93.00;;;;;;5027536;28;20037;-58
2022/11/25 10:01:54;;;;;;;;;;;19.20;92.60;;;;;;5028857;28;20022;-58
2022/11/25 10:04:46;;;;;;;7.65;2.20;;;19.50;93.20;;;;;;5032026;28;20288;-59
2022/11/25 10:07:28;;;;;;;9.57;2.25;;;19.40;90.80;;;;;;5027414;28;20060;-59
2022/11/25 10:09:57;;;;;;;8.43;1.90;;;18.70;90.90;;;;;;5032341;28;20033;-59
2022/11/25 10:12:33;;;;;;;6.53;1.63;;;19.10;92.10;;;;;;5031346;28;20029;-58
2022/11/25 10:15:07;;;;;;;9.65;1.90;;;19.50;91.80;;;;;;5031622;28;20022;-58
2022/11/25 10:17:40;;;;;;;8.57;2.00;;;19.90;88.70;;;;;;5029553;28;20060;-58
2022/11/25 10:20:22;;;;;;;12.00;1.90;;;18.90;89.70;;;;;;5031144;28;20017;-56
2022/11/25 10:22:52;;;;;;;7.55;1.80;;;18.30;92.20;;;;;;5031701;28;20120;-57
2022/11/25 10:25:24;;;;;;;10.07;1.83;;;18.80;91.40;;;;;;5029782;28;20181;-58
2022/11/25 10:28:01;;;;;;;12.48;2.38;;;20.10;89.70;;;;;;5030054;28;20431;-56
2022/11/25 10:30:33;;;;;;;8.68;2.13;;;20.80;86.60;;;;;;5012160;28;20462;-56
2022/11/25 10:33:18;;;;;;;6.70;2.00;;;22.00;82.50;;;;;;5028673;28;20029;-57
2022/11/25 10:35:53;;;;;;;10.93;2.10;;;22.30;82.10;;;;;;5030330;28;20056;-58
2022/11/25 10:38:45;;;;;;;10.38;1.92;;;22.80;82.40;;;;;;5030465;28;20502;-59
2022/11/25 10:41:16;;;;;;;8.13;2.00;;;23.70;76.90;;;;;;5017950;28;20110;-57
2022/11/25 10:43:44;;;;;;;9.02;1.95;;;24.00;75.50;;;;;;5030620;28;20029;-58
2022/11/25 10:46:34;;;;;;;8.38;2.10;;;24.40;74.00;;;;;;5031312;28;20025;-59
2022/11/25 10:49:12;;;;;;;8.93;2.28;;;24.90;73.20;;;;;;5031223;28;20037;-58
2022/11/25 10:51:48;;;;;;;9.27;1.90;;;25.30;69.70;;;;;;5031598;28;20025;-58
2022/11/25 10:54:18;;;;;;;9.80;2.47;;;25.40;70.70;;;;;;5031554;28;20037;-58
2022/11/25 10:56:52;;;;;;;11.48;2.78;;;25.90;66.40;;;;;;5030991;28;20022;-58
2022/11/25 10:59:23;;;;;;;6.75;1.85;;;26.00;66.10;;;;;;5023978;28;20026;-57
2022/11/25 11:01:51;;;;;;;7.25;2.08;;;25.50;67.10;;;;;;5030353;28;20103;-58
2022/11/25 11:04:17;;;;;;;11.75;2.47;;;25.70;63.20;;;;;;5031302;28;20109;-56
2022/11/25 11:06:48;;;;;;;10.32;2.20;;;25.50;64.20;;;;;;5030994;28;20104;-57
2022/11/25 11:09:31;;;;;;;8.75;2.03;;;25.50;63.20;;;;;;5031432;28;20449;-57
2022/11/25 11:11:56;;;;;;;8.30;2.10;;;25.50;62.90;;;;;;5026576;28;20037;-57
2022/11/25 11:14:22;;;;;;;11.65;2.55;;;25.50;63.20;;;;;;5031386;28;20393;-57
2022/11/25 11:16:55;;;;;;;7.55;2.25;;;24.80;63.20;;;;;;5030107;28;20013;-57
2022/11/25 11:19:27;;;;;;;9.65;3.30;;;24.80;63.30;;;;;;5025356;28;20492;-58
2022/11/25 11:21:54;;;;;;;10.30;3.13;;;24.60;63.80;;;;;;5029510;28;20033;-58
2022/11/25 11:24:33;;;;;;;12.85;3.92;;;24.90;65.80;;;;;;5028793;28;20021;-57
2022/11/25 11:27:04;;;;;;;9.32;3.90;;;25.50;62.30;;;;;;5028454;28;20050;-57
2022/11/25 11:29:30;;;;;;;9.82;3.53;;;25.40;60.80;;;;;;5028044;28;20032;-57
2022/11/25 11:32:02;;;;;;;11.45;2.92;;;25.10;61.70;;;;;;5029393;28;20037;-57
2022/11/25 11:35:02;;;;;;;9.60;2.72;;;25.10;60.30;;;;;;5028445;28;20060;-58
2022/11/25 11:37:46;;;;;;;9.90;2.60;;;24.70;62.20;;;;;;5028855;28;20026;-58
2022/11/25 11:40:24;;;;;;;7.32;2.45;;;24.50;61.50;;;;;;5029516;28;20029;-57
2022/11/25 11:43:06;;;;;;;12.87;3.17;;;24.30;62.60;;;;;;5028963;28;20023;-57
2022/11/25 11:46:31;;;;;;;8.43;2.45;;;24.50;62.40;;;;;;5029223;28;20508;-57
2022/11/25 11:49:02;;;;;;;10.93;3.42;;;24.50;61.30;;;;;;5007029;28;20091;-56
2022/11/25 11:51:56;;;;;;;10.52;3.92;;;24.20;62.90;;;;;;5006583;28;20071;-58
2022/11/25 11:54:29;;;;;;;10.52;3.30;;;24.20;61.80;;;;;;5016422;28;20120;-57
2022/11/25 11:57:15;;;;;;;9.60;2.42;;;24.60;64.80;;;;;;5029212;28;20021;-59
2022/11/25 11:59:58;;;;;;;8.75;2.40;;;25.00;62.70;;;;;;5029368;28;20056;-57
2022/11/25 12:02:39;;;;;;;10.90;2.53;;;25.40;60.40;;;;;;5028783;28;20041;-58
2022/11/25 12:05:10;;;;;;;11.13;3.00;;;25.50;59.30;;;;;;5028854;28;20094;-58
2022/11/25 12:07:51;;;;;;;11.35;2.13;;;25.60;59.10;;;;;;5029457;28;20468;-58
2022/11/25 12:10:31;;;;;;;11.40;2.53;;;25.40;60.40;;;;;;5028615;28;20044;-57
2022/11/25 12:13:18;;;;;;;12.57;2.10;;;25.70;60.40;;;;;;5028965;28;20044;-57
2022/11/25 12:15:57;;;;;;;15.60;2.70;;;25.70;58.10;;;;;;5029673;28;20036;-57
2022/11/25 12:18:55;;;;;;;12.18;2.10;;;25.10;58.30;;;;;;5029749;28;20029;-57
2022/11/25 12:21:27;;;;;;;8.27;1.80;;;25.10;60.50;;;;;;5029556;28;20021;-57
2022/11/25 12:24:26;;;;;;;9.95;2.10;;;25.50;58.40;;;;;;5029932;28;20041;-58
2022/11/25 12:27:04;;;;;;;9.05;2.13;;;24.60;58.20;;;;;;5027254;28;20049;-59
2022/11/25 12:29:51;;;;;;;9.63;1.92;;;24.30;60.10;;;;;;5028617;28;20030;-58
2022/11/25 12:32:52;;;;;;;8.35;1.90;;;24.30;60.00;;;;;;5028724;28;20472;-58
2022/11/25 12:35:36;;;;;;;11.13;1.85;;;24.20;60.80;;;;;;5028778;28;20088;-58
2022/11/25 12:38:21;;;;;;;11.15;1.90;;;24.20;60.00;;;;;;5029572;28;20034;-58
2022/11/25 12:41:13;;;;;;;10.75;2.10;;;23.80;60.10;;;;;;5029702;28;20022;-57
2022/11/25 12:43:48;;;;;;;6.80;1.65;;;23.50;63.40;;;;;;5029011;28;20064;-57
2022/11/25 12:46:21;;;;;;;8.10;2.08;;;23.90;60.50;;;;;;5028339;28;20017;-57
2022/11/25 12:48:47;;;;;;;8.68;1.50;;;24.00;60.60;;;;;;5030493;28;20530;-57
2022/11/25 12:51:21;;;;;;;7.53;2.03;;;24.50;60.10;;;;;;5033673;28;20025;-58
2022/11/25 12:54:17;;;;;;;9.18;1.90;;;24.40;58.40;;;;;;5030147;28;20041;-58
2022/11/25 12:57:16;;;;;;;7.65;2.22;;;24.10;61.00;;;;;;5031301;28;20025;-58
2022/11/25 13:00:01;;;;;;;8.82;1.85;;;23.50;60.70;;;;;;5030960;28;20133;-57
2022/11/25 13:03:04;;;;;;;7.05;1.60;;;22.70;62.30;;;;;;5032474;28;20049;-57
2022/11/25 13:05:48;;;;;;;11.32;1.92;;;21.60;62.60;;;;;;5031656;28;20029;-57
2022/11/25 13:08:38;;;;;;;7.20;1.60;;;20.70;64.90;;;;;;5032957;28;20447;-57
2022/11/25 13:11:14;;;;;;;9.90;2.10;;;20.30;66.80;;;;;;5030409;28;20033;-58
2022/11/25 13:13:46;;;;;;;7.55;2.20;;;19.80;68.00;;;;;;5033293;28;20041;-57
2022/11/25 13:16:12;;;;;;;8.60;2.13;;;19.50;70.70;;;;;;5032749;28;20091;-58
2022/11/25 13:18:41;;;;;;;7.43;1.85;;;19.60;70.00;;;;;;5032567;28;20504;-57
2022/11/25 13:21:18;;;;;;;7.60;1.50;;;20.20;69.50;;;;;;5033370;28;20034;-58
2022/11/25 13:23:51;;;;;;;9.10;2.00;;;20.70;69.20;;;;;;5033062;28;20021;-57
2022/11/25 13:26:33;;;;;;;12.57;2.05;;;20.60;66.90;;;;;;5030912;28;21063;-58
2022/11/25 13:29:00;;;;;;;6.07;1.15;;;20.30;67.70;;;;;;5033282;28;20033;-58
2022/11/25 13:31:59;;;;;;;7.63;1.30;;;19.90;68.20;;;;;;5033240;28;20017;-56
2022/11/25 13:34:30;;;;;;;8.27;1.48;;;19.70;68.90;;;;;;5033188;28;20025;-58
2022/11/25 13:37:01;;;;;;;5.80;1.63;;;20.00;68.80;;;;;;5025810;28;20049;-61
2022/11/25 13:39:33;;;;;;;13.20;2.03;;;20.10;66.80;;;;;;5030293;28;20021;-60
2022/11/25 13:42:03;;;;;;;8.70;1.70;;;20.20;67.30;;;;;;5030834;28;20656;-60
2022/11/25 13:44:52;;;;;;;10.02;1.90;;;20.40;68.00;;;;;;5031291;28;20018;-58
2022/11/25 13:47:37;;;;;;;9.48;2.28;;;20.80;66.00;;;;;;5031438;28;20025;-58
2022/11/25 13:50:21;;;;;;;10.00;1.88;;;20.70;67.80;;;;;;5031416;28;20033;-58
2022/11/25 13:53:18;;;;;;;8.13;1.55;;;20.80;66.30;;;;;;5031287;28;20511;-58
2022/11/25 13:55:44;;;;;;;8.10;1.67;;;20.30;66.80;;;;;;5030764;28;20033;-58
2022/11/25 13:58:17;;;;;;;9.73;1.92;;;19.70;67.10;;;;;;5030961;28;20120;-58
2022/11/25 14:00:57;;;;;;;8.10;2.08;;;18.90;69.70;;;;;;5022080;28;20032;-57
2022/11/25 14:03:23;;;;;;;6.25;1.70;;;18.90;70.30;;;;;;5030035;28;20053;-58
2022/11/25 14:05:49;;;;;;;6.45;1.73;;;18.80;71.80;;;;;;5030303;28;20068;-58
2022/11/25 14:08:18;;;;;;;11.15;1.85;;;18.50;72.30;;;;;;5028463;28;20029;-57
2022/11/25 14:11:03;;;;;;;10.63;2.08;;;17.80;73.70;;;;;;5029636;28;20116;-59
2022/11/25 14:13:59;;;;;;;8.82;1.83;;;17.10;74.50;;;;;;5027973;28;20037;-59
2022/11/25 14:16:45;;;;;;;8.95;1.70;;;16.50;77.70;;;;;;5030997;28;20041;-59
2022/11/25 14:19:42;;;;;;;15.30;2.00;;;16.00;78.30;;;;;;5030793;28;20025;-59
2022/11/25 14:22:24;;;;;;;10.82;2.40;;;15.70;80.00;;;;;;5029862;28;20030;-59
2022/11/25 14:24:54;;;;;;;9.85;2.10;;;15.90;79.10;;;;;;5029790;28;20111;-59
2022/11/25 14:27:25;;;;;;;6.45;1.40;;;15.70;79.50;;;;;;5029021;28;20033;-59
2022/11/25 14:29:59;;;;;;;8.20;1.73;;;15.10;79.60;;;;;;5030520;28;20057;-59
2022/11/25 14:32:38;;;;;;;8.48;2.28;;;14.60;82.10;;;;;;5028234;28;20044;-59
2022/11/25 14:35:21;;;;;;;7.68;1.65;;;14.20;84.80;;;;;;5029305;28;20079;-59
2022/11/25 14:38:05;;;;;;;13.30;2.58;;;13.90;85.90;;;;;;5028776;28;20044;-58
2022/11/25 14:40:51;;;;;;;9.68;1.83;;;13.60;86.20;;;;;;5029358;28;20052;-59
2022/11/25 14:43:23;;;;;;;8.18;1.50;;;13.40;88.40;;;;;;5028337;28;20033;-59
2022/11/25 14:46:08;;;;;;;7.63;1.67;;;13.20;89.30;;;;;;5028604;28;20480;-59
2022/11/25 14:48:34;;;;;;;11.15;1.60;;;13.10;89.80;;;;;;5029510;28;20076;-59
2022/11/25 14:51:03;;;;;;;10.52;1.90;;;13.00;90.70;;;;;;5029214;28;20066;-59
2022/11/25 14:53:29;;;;;;;11.73;2.63;;;12.90;90.60;;;;;;5029850;28;20041;-58
2022/11/25 14:55:58;;;;;;;9.88;2.20;;;12.80;91.60;;;;;;5030459;28;20052;-59
2022/11/25 14:58:25;;;;;;;10.38;2.00;;;12.80;90.60;;;;;;5029445;28;20101;-59
2022/11/25 15:00:58;;;;;;;11.52;1.80;;;12.70;90.70;;;;;;5029409;28;20374;-59
2022/11/25 15:03:24;;;;;;;11.20;2.15;;;12.60;90.90;;;;;;5029274;28;20546;-58
2022/11/25 15:05:56;;;;;;;6.10;1.60;;;12.60;91.30;;;;;;5029191;28;20061;-59
2022/11/25 15:08:23;;;;;;;12.13;2.22;;;12.50;91.60;;;;;;5028357;28;20149;-58
2022/11/25 15:11:03;;;;;;;8.82;1.88;;;12.40;92.20;;;;;;5029305;28;20396;-59
2022/11/25 15:13:33;;;;;;;9.68;1.70;;;12.40;92.40;;;;;;5028705;28;20041;-59
2022/11/25 15:16:17;;;;;;;9.80;1.98;;;12.30;92.30;;;;;;5029897;28;20082;-56
2022/11/25 15:18:57;;;;;;;10.50;2.38;;;12.20;92.90;;;;;;5030561;28;20033;-59
2022/11/25 15:21:30;;;;;;;12.88;2.20;;;12.10;93.40;;;;;;5030008;28;20032;-58
2022/11/25 15:23:57;;;;;;;9.15;2.50;;;12.00;93.80;;;;;;5029884;28;20033;-58
2022/11/25 15:26:25;;;;;;;14.57;2.60;;;11.90;93.80;;;;;;5030116;28;20481;-58
2022/11/25 15:28:59;;;;;;;11.80;2.20;;;11.80;94.00;;;;;;5030477;28;20025;-60
2022/11/25 15:31:31;;;;;;;9.43;3.17;;;11.70;94.40;;;;;;5030278;28;20025;-59
2022/11/25 15:34:01;;;;;;;14.60;2.20;;;11.60;94.80;;;;;;5023507;28;20489;-60
2022/11/25 15:36:27;;;;;;;10.52;1.88;;;11.50;95.20;;;;;;5029164;28;20029;-59
2022/11/25 15:38:53;;;;;;;15.05;3.17;;;11.40;95.30;;;;;;5027269;28;20128;-59
2022/11/25 15:41:32;;;;;;;11.32;1.95;;;11.30;95.80;;;;;;5028646;28;20029;-59
2022/11/25 15:44:00;;;;;;;14.35;2.13;;;11.10;96.00;;;;;;5029312;28;20052;-59
2022/11/25 15:46:27;;;;;;;14.07;2.42;;;11.00;96.30;;;;;;5029175;28;20480;-59
2022/11/25 15:48:57;;;;;;;11.02;1.92;;;10.90;96.80;;;;;;5029672;28;20053;-59
2022/11/25 15:51:30;;;;;;;8.60;1.98;;;10.80;97.00;;;;;;5029315;28;20572;-58
2022/11/25 15:54:06;;;;;;;16.90;3.00;;;10.80;97.00;;;;;;5025360;28;20473;-58
2022/11/25 15:56:37;;;;;;;9.95;1.83;;;10.70;97.60;;;;;;5029529;28;20112;-58
2022/11/25 15:59:02;;;;;;;11.63;1.83;;;10.60;97.80;;;;;;5027510;28;20037;-59
2022/11/25 16:01:29;;;;;;;8.05;1.67;;;10.40;98.00;;;;;;5029021;28;20499;-59
2022/11/25 16:04:10;;;;;;;11.90;2.58;;;10.30;98.50;;;;;;5029706;28;20057;-58
2022/11/25 16:06:50;;;;;;;15.63;2.45;;;10.20;99.10;;;;;;5029785;28;20160;-59
2022/11/25 16:09:19;;;;;;;11.38;1.98;;;10.00;99.50;;;;;;5018614;28;20033;-59
2022/11/25 16:11:45;;;;;;;;;;;9.90;99.90;;;;;;5027650;28;20036;-59
2022/11/25 16:14:27;;;;;;;11.48;2.50;;;9.80;99.90;;;;;;5026726;28;20315;-59
2022/11/25 16:17:10;;;;;;;14.32;2.78;;;9.70;99.90;;;;;;5027275;28;20558;-58
2022/11/25 16:19:42;;;;;;;9.85;3.47;;;9.70;99.90;;;;;;5026664;28;20026;-59
2022/11/25 16:22:13;;;;;;;10.52;2.53;;;9.50;99.90;;;;;;5029253;28;20025;-59
2022/11/25 16:24:44;;;;;;;11.52;2.90;;;9.50;99.90;;;;;;5030998;28;20024;-57
2022/11/25 16:27:36;;;;;;;16.27;3.40;;;9.40;99.90;;;;;;5033737;28;20029;-58
2022/11/25 16:30:05;;;;;;;12.70;3.50;;;9.20;99.90;;;;;;5032926;28;20037;-58
2022/11/25 16:32:32;;;;;;;11.07;2.50;;;9.10;99.90;;;;;;5033930;28;20098;-58
2022/11/25 16:35:19;;;;;;;11.45;2.70;;;9.10;99.90;;;;;;5034319;28;20018;-58
2022/11/25 16:37:45;;;;;;;10.10;3.20;;;9.00;99.90;;;;;;5031988;28;20425;-61
2022/11/25 16:40:12;;;;;;;11.90;3.58;;;9.00;99.90;;;;;;5034340;28;20049;-59
2022/11/25 16:42:38;;;;;;;7.30;3.53;;;9.00;99.90;;;;;;5033964;28;20022;-59
2022/11/25 16:45:22;;;;;;;10.23;3.90;;;8.90;99.90;;;;;;5033773;28;20084;-59
2022/11/25 16:47:47;;;;;;;8.98;3.50;;;8.80;99.90;;;;;;5033915;28;20069;-59
2022/11/25 16:50:15;;;;;;;10.50;3.92;;;8.70;99.90;;;;;;5034206;28;20455;-59
2022/11/25 16:52:41;;;;;;;9.52;3.10;;;8.60;99.90;;;;;;5034248;28;20052;-58
2022/11/25 16:55:08;;;;;;;11.68;3.03;;;8.60;99.90;;;;;;5033814;28;20017;-58
2022/11/25 16:57:34;;;;;;;9.93;3.42;;;8.50;99.90;;;;;;5033507;28;20040;-59
2022/11/25 17:00:07;;;;;;;11.13;3.10;;;8.50;99.90;;;;;;5032601;28;20021;-59
2022/11/25 17:02:34;;;;;;;12.68;3.05;;;8.40;99.90;;;;;;5032837;28;20513;-60
2022/11/25 17:05:20;;;;;;;10.68;2.90;;;8.40;99.90;;;;;;5031326;28;20056;-59
2022/11/25 17:07:46;;;;;;;12.35;2.50;;;8.30;99.90;;;;;;5030450;28;20029;-58
2022/11/25 17:10:12;;;;;;;16.83;3.08;;;8.20;99.90;;;;;;5027235;28;20040;-59
2022/11/25 17:12:40;;;;;;;7.65;2.45;;;8.20;99.90;;;;;;5029985;28;20045;-59
2022/11/25 17:15:16;;;;;;;11.60;3.08;;;8.10;99.90;;;;;;5029317;28;20388;-60
2022/11/25 17:17:45;;;;;;;10.52;2.33;;;8.10;99.90;;;;;;5030707;28;20654;-59
2022/11/25 17:20:23;;;;;;;13.82;2.85;;;8.00;99.90;;;;;;5029506;28;20013;-60
2022/11/25 17:22:50;;;;;;;19.38;3.08;;;8.00;99.90;;;;;;5030298;28;20033;-59
2022/11/25 17:25:16;;;;;;;16.58;2.70;;;7.90;99.90;;;;;;5030291;28;20024;-60
2022/11/25 17:27:44;;;;;;;15.35;3.15;;;7.90;99.90;;;;;;5030267;28;20030;-60
2022/11/25 17:30:24;;;;;;;14.25;3.55;;;7.80;99.90;;;;;;5030783;28;20096;-60
2022/11/25 17:33:09;;;;;;;53.13;16.45;;;7.80;99.90;;;;;;5025992;28;20358;-60
2022/11/25 17:35:35;;;;;;;102.20;36.35;;;7.80;99.90;;;;;;5028069;28;20396;-60
2022/11/25 17:38:00;;;;;;;49.30;19.15;;;7.80;99.90;;;;;;5028393;28;20021;-59
2022/11/25 17:40:27;;;;;;;67.25;28.88;;;7.70;99.90;;;;;;5031062;28;20112;-59
2022/11/25 17:42:52;;;;;;;39.38;20.90;;;7.80;99.90;;;;;;5030858;28;20068;-59
2022/11/25 17:45:20;;;;;;;71.93;41.28;;;7.80;99.90;;;;;;5030419;28;20022;-59
2022/11/25 17:47:46;;;;;;;44.72;26.42;;;7.80;99.90;;;;;;5031330;28;20024;-59
2022/11/25 17:50:19;;;;;;;30.80;13.07;;;7.80;99.90;;;;;;5031864;28;20037;-59
2022/11/25 17:52:45;;;;;;;22.77;10.52;;;7.70;99.90;;;;;;5031756;28;20044;-60
2022/11/25 17:55:11;;;;;;;25.10;14.15;;;7.70;99.90;;;;;;5031499;28;20108;-59
2022/11/25 17:57:37;;;;;;;22.45;9.45;;;7.70;99.90;;;;;;5030999;28;20025;-60
2022/11/25 18:00:06;;;;;;;18.48;8.55;;;7.70;99.90;;;;;;5031121;28;20030;-59
2022/11/25 18:02:31;;;;;;;23.55;9.20;;;7.70;99.90;;;;;;5031880;28;20074;-60
2022/11/25 18:04:57;;;;;;;23.67;7.25;;;7.60;99.90;;;;;;5022713;28;20018;-61
2022/11/25 18:07:22;;;;;;;16.65;5.78;;;7.60;99.90;;;;;;5031491;28;20836;-60
2022/11/25 18:09:48;;;;;;;18.38;4.88;;;7.60;99.90;;;;;;5030838;28;20029;-61
2022/11/25 18:12:23;;;;;;;17.40;4.88;;;7.70;99.90;;;;;;5031757;28;20037;-60
2022/11/25 18:14:49;;;;;;;26.30;6.53;;;7.70;99.90;;;;;;5031248;28;20483;-61
2022/11/25 18:17:17;;;;;;;20.45;4.00;;;7.70;99.90;;;;;;5031851;28;20029;-61
2022/11/25 18:19:43;;;;;;;17.08;4.43;;;7.70;99.90;;;;;;5029447;28;20033;-61
2022/11/25 18:22:14;;;;;;;14.90;4.25;;;7.70;99.90;;;;;;5029981;28;20034;-60
2022/11/25 18:24:40;;;;;;;17.58;4.40;;;7.80;99.90;;;;;;5030124;28;20025;-60
2022/11/25 18:27:12;;;;;;;11.30;3.75;;;7.80;99.90;;;;;;5029946;28;20358;-61
2022/11/25 18:29:38;;;;;;;17.95;4.28;;;7.70;99.90;;;;;;5030901;28;20057;-61
2022/11/25 18:32:04;;;;;;;20.65;4.93;;;7.80;99.90;;;;;;5029958;28;20060;-60
2022/11/25 18:34:29;;;;;;;15.18;4.18;;;7.80;99.90;;;;;;5030604;28;20075;-61
2022/11/25 18:36:55;;;;;;;23.05;4.30;;;7.80;99.90;;;;;;5030330;28;20083;-61
2022/11/25 18:39:22;;;;;;;14.95;6.93;;;7.80;99.90;;;;;;5030489;28;20029;-61
2022/11/25 18:41:52;;;;;;;17.08;5.05;;;7.80;99.90;;;;;;5030602;28;20067;-60
2022/11/25 18:44:23;;;;;;;19.75;4.50;;;7.80;99.90;;;;;;5030745;28;20104;-60
2022/11/25 18:46:49;;;;;;;26.90;5.13;;;7.80;99.90;;;;;;5029688;28;20492;-61
2022/11/25 18:49:15;;;;;;;13.75;4.38;;;7.80;99.90;;;;;;5029889;28;20037;-61
2022/11/25 18:51:41;;;;;;;17.92;4.25;;;7.80;99.90;;;;;;5029698;28;20036;-59
2022/11/25 18:54:07;;;;;;;14.13;4.53;;;7.80;99.90;;;;;;5029962;28;20042;-60
2022/11/25 18:56:35;;;;;;;12.63;4.07;;;7.80;99.90;;;;;;5030146;28;20092;-61
2022/11/25 18:59:02;;;;;;;16.23;3.72;;;7.70;99.90;;;;;;5028771;28;20025;-59
2022/11/25 19:01:28;;;;;;;23.20;4.35;;;7.70;99.90;;;;;;5029453;28;20059;-59
2022/11/25 19:03:54;;;;;;;17.60;4.57;;;7.60;99.90;;;;;;5030388;28;20067;-59
2022/11/25 19:06:21;;;;;;;16.48;4.63;;;7.60;99.90;;;;;;5030193;28;20029;-60
2022/11/25 19:08:47;;;;;;;13.65;4.20;;;7.60;99.90;;;;;;5029045;28;20021;-60
2022/11/25 19:11:17;;;;;;;12.25;3.85;;;7.50;99.90;;;;;;5029694;28;20033;-60
2022/11/25 19:13:49;;;;;;;19.05;6.25;;;7.50;99.90;;;;;;5029738;28;20432;-60
2022/11/25 19:16:18;;;;;;;14.98;5.63;;;7.40;99.90;;;;;;5029701;28;20026;-60
2022/11/25 19:18:45;;;;;;;14.45;5.82;;;7.40;99.90;;;;;;5026038;28;20409;-59
2022/11/25 19:21:15;;;;;;;21.00;7.40;;;7.30;99.90;;;;;;5028038;28;20289;-60
2022/11/25 19:23:42;;;;;;;28.65;10.50;;;7.30;99.90;;;;;;5027093;28;20124;-59
2022/11/25 19:26:14;;;;;;;25.42;11.00;;;7.30;99.90;;;;;;5028353;28;20010;-60
2022/11/25 19:28:41;;;;;;;29.50;11.07;;;7.20;99.90;;;;;;5028195;28;20497;-60
2022/11/25 19:31:09;;;;;;;22.98;9.13;;;7.20;99.90;;;;;;5029305;28;20025;-60
2022/11/25 19:33:37;;;;;;;30.50;9.60;;;7.20;99.90;;;;;;5030250;28;20033;-60
2022/11/25 19:36:04;;;;;;;35.47;11.13;;;7.20;99.90;;;;;;5028623;28;20082;-62
2022/11/25 19:38:31;;;;;;;24.67;11.18;;;7.20;99.90;;;;;;5030478;28;20017;-60
2022/11/25 19:40:58;;;;;;;29.88;12.80;;;7.20;99.90;;;;;;5030430;28;20067;-61
2022/11/25 19:43:27;;;;;;;25.35;12.27;;;7.20;99.90;;;;;;5030306;28;20022;-60
2022/11/25 19:45:54;;;;;;;28.65;12.20;;;7.20;99.90;;;;;;5030320;28;20032;-59
2022/11/25 19:48:21;;;;;;;27.40;13.40;;;7.20;99.90;;;;;;5027641;28;20030;-60
2022/11/25 19:50:58;;;;;;;28.80;13.23;;;7.20;99.90;;;;;;5030862;28;20044;-59
2022/11/25 19:53:24;;;;;;;26.08;12.05;;;7.20;99.90;;;;;;5030548;28;20492;-60
2022/11/25 19:55:50;;;;;;;22.67;12.40;;;7.20;99.90;;;;;;5040489;28;20070;-61
2022/11/25 19:58:15;;;;;;;26.63;11.40;;;7.10;99.90;;;;;;5031299;28;20029;-61
2022/11/25 20:00:43;;;;;;;23.23;12.50;;;7.10;99.90;;;;;;5030356;28;20092;-58
2022/11/25 20:03:21;;;;;;;25.40;12.75;;;7.10;99.90;;;;;;5030215;28;20050;-60
2022/11/25 20:05:48;;;;;;;24.50;12.48;;;7.00;99.90;;;;;;5030931;28;20035;-60
2022/11/25 20:08:22;;;;;;;28.52;14.32;;;7.00;99.90;;;;;;5030698;28;20027;-59
2022/11/25 20:10:48;;;;;;;29.08;13.00;;;7.00;99.90;;;;;;5030098;28;20388;-61
2022/11/25 20:13:14;;;;;;;34.17;13.80;;;6.90;99.90;;;;;;5028558;28;20037;-60
2022/11/25 20:15:41;;;;;;;33.50;14.68;;;6.90;99.90;;;;;;5029757;28;20100;-60
2022/11/25 20:18:14;;;;;;;31.58;14.27;;;6.90;99.90;;;;;;5029951;28;20503;-60
2022/11/25 20:20:40;;;;;;;27.60;11.88;;;6.90;99.90;;;;;;5029889;28;20492;-60
2022/11/25 20:23:42;;;;;;;25.70;10.65;;;6.90;99.90;;;;;;5030074;28;20029;-59
2022/11/25 20:26:23;;;;;;;23.52;10.07;;;6.80;99.90;;;;;;5027953;28;20493;-59
2022/11/25 20:28:48;;;;;;;19.98;9.07;;;6.70;99.90;;;;;;5030586;28;20033;-59
2022/11/25 20:31:14;;;;;;;22.20;9.10;;;6.70;99.90;;;;;;5030135;28;20025;-59
2022/11/25 20:33:40;;;;;;;20.63;9.38;;;6.60;99.90;;;;;;5029911;28;20099;-56
2022/11/25 20:36:22;;;;;;;25.05;9.23;;;6.50;99.90;;;;;;5029620;28;20450;-61
2022/11/25 20:38:51;;;;;;;27.83;10.60;;;6.40;99.90;;;;;;5029975;28;20030;-61
2022/11/25 20:41:17;;;;;;;;;;;6.40;99.90;;;;;;5029744;28;20098;-60
2022/11/25 20:43:46;;;;;;;39.35;15.35;;;6.40;99.90;;;;;;5028516;28;20376;-60
2022/11/25 20:46:21;;;;;;;35.58;14.70;;;6.40;99.90;;;;;;5029679;28;20018;-60
2022/11/25 20:48:51;;;;;;;28.88;11.93;;;6.30;99.90;;;;;;5029550;28;20029;-61
2022/11/25 20:51:20;;;;;;;27.25;10.77;;;6.30;99.90;;;;;;5029549;28;20058;-60
2022/11/25 20:53:51;;;;;;;25.50;10.57;;;6.30;99.90;;;;;;5028968;28;20552;-60
2022/11/25 20:56:19;;;;;;;26.80;10.68;;;6.20;99.90;;;;;;5030133;28;20052;-60
2022/11/25 20:58:46;;;;;;;26.13;10.80;;;6.10;99.90;;;;;;5029824;28;20039;-61
2022/11/25 21:01:13;;;;;;;21.08;9.57;;;6.10;99.90;;;;;;5028511;28;20493;-60
2022/11/25 21:03:42;;;;;;;18.55;9.48;;;6.10;99.90;;;;;;5029495;28;20048;-60
2022/11/25 21:06:22;;;;;;;18.65;9.48;;;6.10;99.90;;;;;;5030108;28;20021;-60
2022/11/25 21:08:50;;;;;;;21.90;9.50;;;6.10;99.90;;;;;;5028310;28;20041;-60
2022/11/25 21:11:16;;;;;;;23.10;9.27;;;6.10;99.90;;;;;;5033062;28;20017;-60
2022/11/25 21:13:42;;;;;;;33.65;11.25;;;6.10;99.90;;;;;;5032489;28;20497;-61
2022/11/25 21:16:07;;;;;;;28.98;12.65;;;6.10;99.90;;;;;;5033457;28;20075;-61
2022/11/25 21:18:33;;;;;;;37.50;15.52;;;6.20;99.90;;;;;;5031834;28;20036;-60
2022/11/25 21:20:59;;;;;;;41.42;15.00;;;6.20;99.90;;;;;;5031004;28;20026;-60